Time;durP1;ratioP1;P1;durP2;ratioP2;P2;SDS_P1;SDS_P2;PMS_P1;PMS_P2;Temp;Humidity;BMP_temperature;BMP_pressure;BME280_temperature;BME280_humidity;BME280_pressure;Samples;Min_cycle;Max_cycle;Signal;HPM_P1;HPM_P2
2021/03/29 00:01:43;;;;;;;14.77;5.55;;;8.00;99.90;;;;;;5004888;28;20089;-58
2021/03/29 00:04:09;;;;;;;15.25;4.97;;;7.90;99.90;;;;;;5010464;28;20524;-58
2021/03/29 00:06:36;;;;;;;13.30;4.65;;;7.90;99.90;;;;;;5010892;28;20408;-61
2021/03/29 00:09:03;;;;;;;13.98;4.75;;;8.00;99.90;;;;;;5011219;28;20566;-61
2021/03/29 00:11:30;;;;;;;20.40;5.43;;;7.90;99.90;;;;;;5010426;28;20106;-62
2021/03/29 00:13:56;;;;;;;18.83;5.90;;;7.90;99.90;;;;;;5011809;28;20034;-62
2021/03/29 00:16:23;;;;;;;14.80;5.78;;;8.00;99.90;;;;;;5010403;28;20075;-59
2021/03/29 00:18:49;;;;;;;19.73;5.40;;;7.90;99.90;;;;;;5011480;28;20030;-57
2021/03/29 00:21:15;;;;;;;18.35;5.63;;;7.90;99.90;;;;;;4985635;28;20398;-59
2021/03/29 00:23:42;;;;;;;20.25;5.07;;;7.90;99.90;;;;;;5004570;28;20052;-59
2021/03/29 00:26:08;;;;;;;16.20;5.18;;;7.90;99.90;;;;;;5020337;28;20026;-59
2021/03/29 00:28:34;;;;;;;14.98;5.20;;;7.90;99.90;;;;;;5016448;28;20103;-59
2021/03/29 00:31:00;;;;;;;20.25;5.07;;;7.90;99.90;;;;;;5002509;28;20046;-59
2021/03/29 00:33:28;;;;;;;16.52;5.55;;;7.90;99.90;;;;;;5011664;28;20026;-61
2021/03/29 00:35:54;;;;;;;17.33;5.43;;;7.80;99.90;;;;;;5010487;28;20053;-58
2021/03/29 00:38:21;;;;;;;13.18;5.10;;;7.80;99.90;;;;;;4992632;28;20041;-61
2021/03/29 00:40:54;;;;;;;22.95;5.25;;;7.80;99.90;;;;;;5010862;28;20545;-59
2021/03/29 00:43:29;;;;;;;17.60;5.25;;;7.80;99.90;;;;;;5010920;28;20029;-60
2021/03/29 00:45:56;;;;;;;13.07;4.85;;;7.70;99.90;;;;;;5011217;28;20036;-59
2021/03/29 00:48:24;;;;;;;14.63;4.93;;;7.70;99.90;;;;;;5010711;28;20117;-60
2021/03/29 00:51:12;;;;;;;22.25;6.50;;;7.70;99.90;;;;;;5010684;28;20121;-60
2021/03/29 00:53:40;;;;;;;15.82;6.05;;;7.70;99.90;;;;;;5011302;28;20029;-61
2021/03/29 00:56:06;;;;;;;17.30;5.13;;;7.70;99.90;;;;;;5010642;28;20025;-59
2021/03/29 00:58:34;;;;;;;19.45;5.43;;;7.70;99.90;;;;;;5010998;28;20033;-60
2021/03/29 01:01:13;;;;;;;14.65;6.38;;;7.80;99.90;;;;;;5010118;28;20080;-60
2021/03/29 01:03:47;;;;;;;17.38;6.40;;;7.80;99.90;;;;;;5010417;28;20080;-60
2021/03/29 01:06:15;;;;;;;14.32;5.70;;;7.80;99.90;;;;;;5010361;28;20033;-59
2021/03/29 01:08:45;;;;;;;20.52;5.90;;;7.70;99.90;;;;;;5009654;28;20038;-59
2021/03/29 01:11:14;;;;;;;18.63;6.50;;;7.70;99.90;;;;;;5008634;28;20388;-60
2021/03/29 01:13:47;;;;;;;15.13;6.20;;;7.70;99.90;;;;;;5010046;28;20050;-60
2021/03/29 01:16:17;;;;;;;12.25;5.68;;;7.70;99.90;;;;;;5007274;28;20022;-59
2021/03/29 01:18:45;;;;;;;14.52;5.68;;;7.70;99.90;;;;;;5009963;28;20037;-60
2021/03/29 01:21:40;;;;;;;16.25;6.22;;;7.80;99.90;;;;;;5009288;28;20518;-59
2021/03/29 01:24:15;;;;;;;17.25;6.00;;;7.80;99.90;;;;;;5005958;28;20578;-60
2021/03/29 01:26:46;;;;;;;23.67;6.68;;;7.80;99.90;;;;;;5008618;28;20504;-60
2021/03/29 01:29:15;;;;;;;18.50;7.03;;;7.80;99.90;;;;;;5010017;28;20037;-57
2021/03/29 01:31:42;;;;;;;20.88;6.88;;;7.80;99.90;;;;;;5024770;28;20474;-60
2021/03/29 01:34:10;;;;;;;19.02;6.47;;;7.80;99.90;;;;;;5010285;28;20543;-58
2021/03/29 01:36:36;;;;;;;13.88;6.22;;;7.80;99.90;;;;;;5009446;28;20558;-58
2021/03/29 01:39:05;;;;;;;17.63;6.32;;;7.70;99.90;;;;;;5008942;28;20415;-60
2021/03/29 01:41:32;;;;;;;16.88;6.57;;;7.70;99.90;;;;;;5007443;28;20030;-58
2021/03/29 01:44:00;;;;;;;15.38;7.13;;;7.70;99.90;;;;;;5010176;28;20105;-60
2021/03/29 01:46:25;;;;;;;18.05;7.00;;;7.60;99.90;;;;;;5009791;28;20040;-60
2021/03/29 01:48:52;;;;;;;19.60;6.35;;;7.60;99.90;;;;;;5009263;28;20395;-60
2021/03/29 01:51:18;;;;;;;16.00;6.10;;;7.50;99.90;;;;;;5024273;28;20026;-59
2021/03/29 01:53:46;;;;;;;21.73;6.75;;;7.40;99.90;;;;;;5005167;28;20042;-60
2021/03/29 01:56:12;;;;;;;23.63;7.57;;;7.40;99.90;;;;;;5009417;28;20022;-59
2021/03/29 01:58:38;;;;;;;16.20;6.68;;;7.40;99.90;;;;;;5009730;28;20029;-60
2021/03/29 02:01:11;;;;;;;24.52;7.93;;;7.40;99.90;;;;;;5009421;28;20034;-59
2021/03/29 02:03:40;;;;;;;18.75;6.28;;;7.30;99.90;;;;;;5003317;28;20030;-57
2021/03/29 02:06:07;;;;;;;22.83;7.28;;;7.30;99.90;;;;;;4974758;28;20116;-59
2021/03/29 02:08:34;;;;;;;19.08;7.28;;;7.20;99.90;;;;;;5009363;28;20398;-59
2021/03/29 02:11:00;;;;;;;16.80;7.28;;;7.20;99.90;;;;;;5008972;28;20034;-59
2021/03/29 02:13:30;;;;;;;16.48;6.88;;;7.20;99.90;;;;;;5009384;28;20056;-59
2021/03/29 02:15:59;;;;;;;13.70;6.57;;;7.20;99.90;;;;;;5010161;28;20026;-60
2021/03/29 02:18:29;;;;;;;22.85;8.02;;;7.20;99.90;;;;;;5009725;28;20021;-59
2021/03/29 02:21:00;;;;;;;22.52;9.15;;;7.10;99.90;;;;;;5008844;28;20845;-59
2021/03/29 02:23:27;;;;;;;23.23;7.15;;;7.10;99.90;;;;;;4998380;28;20030;-59
2021/03/29 02:25:54;;;;;;;16.75;7.43;;;7.00;99.90;;;;;;5009795;28;20026;-59
2021/03/29 02:28:20;;;;;;;23.25;7.85;;;7.00;99.90;;;;;;5001264;28;20030;-60
2021/03/29 02:30:47;;;;;;;20.40;6.95;;;7.10;99.90;;;;;;5008260;28;20480;-58
2021/03/29 02:33:15;;;;;;;16.83;6.55;;;7.00;99.90;;;;;;5005478;28;20034;-59
2021/03/29 02:35:42;;;;;;;18.77;7.45;;;6.90;99.90;;;;;;5008808;28;20084;-60
2021/03/29 02:38:15;;;;;;;21.55;8.07;;;6.90;99.90;;;;;;5008707;28;20022;-58
2021/03/29 02:40:43;;;;;;;26.45;7.97;;;6.90;99.90;;;;;;5010331;28;20057;-58
2021/03/29 02:43:10;;;;;;;20.27;7.30;;;6.90;99.90;;;;;;5033477;28;20120;-60
2021/03/29 02:45:43;;;;;;;15.88;6.95;;;6.90;99.90;;;;;;5003072;28;20030;-57
2021/03/29 02:48:10;;;;;;;18.67;7.43;;;6.90;99.90;;;;;;5008380;28;20072;-60
2021/03/29 02:50:38;;;;;;;22.02;6.60;;;6.80;99.90;;;;;;5010183;28;20046;-60
2021/03/29 02:53:09;;;;;;;17.05;7.20;;;6.80;99.90;;;;;;5002409;28;20030;-60
2021/03/29 02:55:36;;;;;;;22.65;7.57;;;6.80;99.90;;;;;;5008686;28;20048;-59
2021/03/29 02:58:04;;;;;;;19.88;6.60;;;6.80;99.90;;;;;;5008402;28;20018;-59
2021/03/29 03:00:31;;;;;;;17.15;6.95;;;6.80;99.90;;;;;;5008911;28;20427;-60
2021/03/29 03:02:59;;;;;;;24.70;7.97;;;6.70;99.90;;;;;;5002498;28;20030;-60
2021/03/29 03:05:37;;;;;;;25.35;7.07;;;6.70;99.90;;;;;;4982210;28;20041;-60
2021/03/29 03:08:05;;;;;;;20.50;7.07;;;6.70;99.90;;;;;;5005803;28;20492;-60
2021/03/29 03:10:32;;;;;;;17.05;6.90;;;6.70;99.90;;;;;;4998686;28;20054;-58
2021/03/29 03:13:01;;;;;;;20.08;6.85;;;6.70;99.90;;;;;;5007792;28;20479;-58
2021/03/29 03:15:28;;;;;;;15.02;6.38;;;6.60;99.90;;;;;;4998377;28;20049;-60
2021/03/29 03:17:57;;;;;;;22.40;7.22;;;6.60;99.90;;;;;;5023327;28;20044;-59
2021/03/29 03:20:23;;;;;;;19.27;6.75;;;6.60;99.90;;;;;;5008229;28;20057;-60
2021/03/29 03:22:57;;;;;;;18.08;6.65;;;6.60;99.90;;;;;;5008381;28;20045;-59
2021/03/29 03:25:41;;;;;;;19.88;6.82;;;6.60;99.90;;;;;;5008196;28;20030;-60
2021/03/29 03:28:09;;;;;;;15.68;6.45;;;6.50;99.90;;;;;;5005658;28;20018;-59
2021/03/29 03:30:37;;;;;;;23.85;6.68;;;6.50;99.90;;;;;;5003067;28;20022;-59
2021/03/29 03:33:05;;;;;;;17.83;6.85;;;6.50;99.90;;;;;;5002283;28;20092;-59
2021/03/29 03:35:32;;;;;;;21.27;6.70;;;6.50;99.90;;;;;;5006942;28;20030;-60
2021/03/29 03:38:03;;;;;;;21.70;6.55;;;6.50;99.90;;;;;;5008453;28;20554;-60
2021/03/29 03:40:30;;;;;;;17.67;6.78;;;6.50;99.90;;;;;;4999852;28;20074;-59
2021/03/29 03:43:00;;;;;;;20.17;6.60;;;6.50;99.90;;;;;;5011678;28;20101;-59
2021/03/29 03:45:30;;;;;;;19.55;6.68;;;6.50;99.90;;;;;;5012232;28;20430;-60
2021/03/29 03:47:57;;;;;;;26.42;6.82;;;6.50;99.90;;;;;;5011951;28;20029;-60
2021/03/29 03:50:24;;;;;;;23.08;6.30;;;6.50;99.90;;;;;;5011704;28;20061;-60
2021/03/29 03:52:50;;;;;;;20.05;6.88;;;6.50;99.90;;;;;;4999425;28;20025;-59
2021/03/29 03:55:17;;;;;;;16.95;5.95;;;6.50;99.90;;;;;;5011437;28;20057;-60
2021/03/29 03:57:42;;;;;;;16.77;7.05;;;6.50;99.90;;;;;;4999960;28;20034;-60
2021/03/29 04:00:14;;;;;;;16.80;6.25;;;6.50;99.90;;;;;;5011423;28;20033;-58
2021/03/29 04:02:40;;;;;;;18.17;6.10;;;6.40;99.90;;;;;;5011357;28;20022;-58
2021/03/29 04:05:11;;;;;;;26.85;7.10;;;6.40;99.90;;;;;;5011601;28;20037;-58
2021/03/29 04:07:37;;;;;;;16.52;5.85;;;6.30;99.90;;;;;;5011338;28;20095;-58
2021/03/29 04:10:35;;;;;;;14.50;5.95;;;6.30;99.90;;;;;;4967378;28;20046;-59
2021/03/29 04:12:56;;;;;;;16.35;6.07;;;6.30;99.90;;;;;;5009820;28;20172;-58
2021/03/29 04:15:22;;;;;;;16.05;6.13;;;6.30;99.90;;;;;;5017270;28;20116;-61
2021/03/29 04:17:48;;;;;;;17.58;5.75;;;6.30;99.90;;;;;;5010729;28;20161;-58
2021/03/29 04:20:15;;;;;;;20.08;5.63;;;6.30;99.90;;;;;;5011261;28;20030;-59
2021/03/29 04:22:41;;;;;;;15.48;6.05;;;6.20;99.90;;;;;;5010958;28;20096;-58
2021/03/29 04:25:10;;;;;;;16.13;6.03;;;6.20;99.90;;;;;;5012101;28;20034;-59
2021/03/29 04:27:35;;;;;;;24.98;6.00;;;6.30;99.90;;;;;;5010688;28;20484;-59
2021/03/29 04:30:02;;;;;;;15.43;5.65;;;6.30;99.90;;;;;;4999823;28;20084;-60
2021/03/29 04:32:28;;;;;;;63.65;27.80;;;6.20;99.90;;;;;;5002980;28;20789;-60
2021/03/29 04:34:53;;;;;;;54.97;24.92;;;6.30;99.90;;;;;;5010278;28;20124;-58
2021/03/29 04:37:19;;;;;;;58.20;27.10;;;6.20;99.90;;;;;;5010786;28;20040;-60
2021/03/29 04:39:44;;;;;;;39.92;14.75;;;6.20;99.90;;;;;;4995277;28;20487;-60
2021/03/29 04:42:10;;;;;;;32.53;13.43;;;6.20;99.90;;;;;;5008224;28;20499;-60
2021/03/29 04:44:36;;;;;;;19.65;12.23;;;6.20;99.90;;;;;;4999579;28;20080;-60
2021/03/29 04:47:02;;;;;;;75.90;35.42;;;6.20;99.90;;;;;;5005019;28;20038;-59
2021/03/29 04:49:27;;;;;;;55.53;28.60;;;6.20;99.90;;;;;;5019911;28;20040;-58
2021/03/29 04:51:53;;;;;;;31.13;17.98;;;6.10;99.90;;;;;;5005239;28;20029;-60
2021/03/29 04:54:19;;;;;;;24.40;8.98;;;6.10;99.90;;;;;;5018896;28;20099;-60
2021/03/29 04:56:45;;;;;;;16.08;6.43;;;6.10;99.90;;;;;;5010070;28;20033;-60
2021/03/29 04:59:11;;;;;;;23.63;8.07;;;6.20;99.90;;;;;;5010488;28;20041;-60
2021/03/29 05:01:36;;;;;;;21.67;10.27;;;6.20;99.90;;;;;;5010345;28;20026;-59
2021/03/29 05:04:03;;;;;;;31.15;15.98;;;6.20;99.90;;;;;;5017907;28;20462;-60
2021/03/29 05:06:31;;;;;;;21.27;8.32;;;6.10;99.90;;;;;;5010549;28;20427;-58
2021/03/29 05:08:57;;;;;;;17.13;5.97;;;6.10;99.90;;;;;;5003429;28;20068;-59
2021/03/29 05:11:34;;;;;;;19.10;5.72;;;6.10;99.90;;;;;;4981167;28;20085;-58
2021/03/29 05:14:00;;;;;;;21.05;7.15;;;6.10;99.90;;;;;;5003886;28;20380;-60
2021/03/29 05:16:25;;;;;;;21.23;5.78;;;6.10;99.90;;;;;;5005705;28;20029;-60
2021/03/29 05:18:51;;;;;;;14.80;5.10;;;6.10;99.90;;;;;;4999326;28;20029;-58
2021/03/29 05:21:17;;;;;;;14.73;4.95;;;6.10;99.90;;;;;;5017664;28;20559;-60
2021/03/29 05:23:42;;;;;;;18.85;5.88;;;6.20;99.90;;;;;;5011359;28;20403;-60
2021/03/29 05:26:08;;;;;;;15.75;5.38;;;6.20;99.90;;;;;;5003612;28;20032;-59
2021/03/29 05:28:33;;;;;;;15.85;5.97;;;6.20;99.90;;;;;;5009579;28;20557;-59
2021/03/29 05:30:59;;;;;;;15.52;5.65;;;6.30;99.90;;;;;;5010213;28;20061;-60
2021/03/29 05:33:24;;;;;;;10.57;4.70;;;6.40;99.90;;;;;;5009377;28;20034;-60
2021/03/29 05:35:50;;;;;;;19.20;7.13;;;6.40;99.90;;;;;;5010145;28;20030;-60
2021/03/29 05:38:15;;;;;;;21.42;7.28;;;6.50;99.90;;;;;;4998561;28;20105;-61
2021/03/29 05:40:41;;;;;;;14.50;6.35;;;6.50;99.90;;;;;;5008275;28;20034;-61
2021/03/29 05:43:08;;;;;;;14.68;4.90;;;6.60;99.90;;;;;;5009746;28;20152;-58
2021/03/29 05:45:35;;;;;;;16.83;4.68;;;6.70;99.90;;;;;;5010381;28;20033;-61
2021/03/29 05:48:01;;;;;;;12.25;5.35;;;6.70;99.90;;;;;;5009334;28;20021;-57
2021/03/29 05:50:26;;;;;;;15.13;4.55;;;6.80;99.90;;;;;;4998424;28;20030;-59
2021/03/29 05:52:52;;;;;;;15.55;5.07;;;6.90;99.90;;;;;;5009384;28;20056;-61
2021/03/29 05:55:23;;;;;;;18.52;5.25;;;7.00;99.90;;;;;;5009635;28;20025;-59
2021/03/29 06:00:33;;;;;;;14.68;4.63;;;7.30;99.90;;;;;;5010464;28;20373;-60
2021/03/29 06:03:25;;;;;;;13.65;4.32;;;7.50;99.90;;;;;;5001770;28;20040;-59
2021/03/29 06:05:54;;;;;;;18.38;4.65;;;7.80;99.90;;;;;;5006644;28;20492;-61
2021/03/29 06:08:20;;;;;;;12.18;3.70;;;8.20;99.90;;;;;;5002071;28;20033;-60
2021/03/29 06:10:49;;;;;;;17.50;4.60;;;8.60;99.90;;;;;;5009084;28;20022;-60
2021/03/29 06:13:19;;;;;;;12.45;4.05;;;8.90;99.90;;;;;;4986827;28;20050;-60
2021/03/29 06:15:46;;;;;;;14.63;4.40;;;9.10;99.90;;;;;;5007931;28;20037;-61
2021/03/29 06:18:16;;;;;;;10.23;3.47;;;9.20;99.90;;;;;;5006985;28;20557;-61
2021/03/29 06:21:07;;;;;;;12.43;4.20;;;9.60;99.90;;;;;;5003258;28;20107;-61
2021/03/29 06:23:34;;;;;;;14.20;3.97;;;9.80;99.90;;;;;;5008166;28;20457;-60
2021/03/29 06:26:23;;;;;;;11.82;4.15;;;9.90;99.90;;;;;;5009404;28;20022;-61
2021/03/29 06:28:50;;;;;;;11.73;4.38;;;10.00;99.90;;;;;;5023958;28;20505;-61
2021/03/29 06:31:20;;;;;;;12.90;4.15;;;10.20;99.90;;;;;;4996996;28;20029;-59
2021/03/29 06:33:47;;;;;;;12.27;4.03;;;10.40;99.90;;;;;;5009076;28;20030;-62
2021/03/29 06:36:34;;;;;;;12.45;3.80;;;10.50;99.90;;;;;;5009242;28;20097;-62
2021/03/29 06:39:10;;;;;;;16.33;3.70;;;10.40;99.90;;;;;;5008702;28;20048;-62
2021/03/29 06:41:36;;;;;;;15.07;4.35;;;10.70;99.90;;;;;;5008846;28;20117;-62
2021/03/29 06:44:02;;;;;;;15.70;4.70;;;11.10;99.90;;;;;;4997018;28;20112;-62
2021/03/29 06:46:29;;;;;;;11.88;3.80;;;11.30;99.70;;;;;;5006538;28;20026;-60
2021/03/29 06:49:00;;;;;;;15.13;4.30;;;11.80;99.30;;;;;;4995502;28;20065;-60
2021/03/29 06:51:32;;;;;;;16.20;4.45;;;12.40;97.70;;;;;;5005556;28;20431;-61
2021/03/29 06:54:07;;;;;;;13.00;4.28;;;12.80;96.70;;;;;;5000010;28;20022;-62
2021/03/29 06:56:35;;;;;;;12.45;4.85;;;13.30;96.00;;;;;;5004560;28;20080;-60
2021/03/29 06:59:04;;;;;;;12.73;4.20;;;13.80;94.60;;;;;;5006829;28;20595;-62
2021/03/29 07:01:31;;;;;;;11.18;4.53;;;14.60;93.60;;;;;;4993905;28;20030;-58
2021/03/29 07:03:57;;;;;;;11.18;4.70;;;15.50;91.10;;;;;;5004405;28;20034;-59
2021/03/29 07:06:28;;;;;;;15.50;4.60;;;16.00;87.70;;;;;;5008501;28;20033;-58
2021/03/29 07:09:07;;;;;;;11.82;4.30;;;16.20;86.50;;;;;;5008606;28;20044;-61
2021/03/29 07:11:34;;;;;;;14.27;3.83;;;16.90;82.90;;;;;;4996153;28;20022;-61
2021/03/29 07:14:02;;;;;;;11.93;3.58;;;16.90;81.70;;;;;;4978859;28;20554;-60
2021/03/29 07:16:28;;;;;;;9.70;3.92;;;17.00;78.80;;;;;;5010521;28;20018;-61
2021/03/29 07:18:58;;;;;;;11.10;3.45;;;17.10;80.60;;;;;;5012916;28;20037;-60
2021/03/29 07:21:25;;;;;;;12.77;4.38;;;17.60;77.30;;;;;;5012120;28;20487;-62
2021/03/29 07:23:52;;;;;;;9.02;3.70;;;18.20;74.70;;;;;;5000982;28;20038;-60
2021/03/29 07:27:02;;;;;;;10.13;3.42;;;18.10;71.90;;;;;;5012537;28;20281;-60
2021/03/29 07:29:29;;;;;;;11.48;3.42;;;18.30;70.10;;;;;;4958672;28;20047;-56
2021/03/29 07:31:57;;;;;;;10.57;3.50;;;18.20;70.00;;;;;;5002962;28;20033;-62
2021/03/29 07:34:49;;;;;;;7.90;2.95;;;18.00;70.10;;;;;;5011702;28;20026;-60
2021/03/29 07:37:39;;;;;;;11.90;3.40;;;18.10;69.80;;;;;;5012202;28;20556;-60
2021/03/29 07:40:20;;;;;;;9.27;3.13;;;17.90;68.90;;;;;;5008992;28;20064;-60
2021/03/29 07:42:48;;;;;;;8.75;3.10;;;17.90;71.10;;;;;;5009433;28;20022;-61
2021/03/29 07:45:34;;;;;;;13.38;3.28;;;18.10;69.90;;;;;;4992294;28;20037;-61
2021/03/29 07:47:59;;;;;;;10.35;3.80;;;18.00;69.60;;;;;;5009651;28;20113;-62
2021/03/29 07:50:25;;;;;;;9.18;3.45;;;18.60;70.20;;;;;;5011486;28;20452;-62
2021/03/29 07:52:52;;;;;;;15.52;3.88;;;19.00;68.00;;;;;;5011434;28;20076;-61
2021/03/29 07:55:30;;;;;;;10.43;2.95;;;18.60;66.00;;;;;;5012763;28;20121;-60
2021/03/29 07:57:55;;;;;;;11.65;3.83;;;18.40;66.50;;;;;;5006310;28;20030;-61
2021/03/29 08:00:24;;;;;;;10.93;3.35;;;18.10;66.80;;;;;;5011986;28;20392;-61
2021/03/29 08:02:56;;;;;;;12.25;3.45;;;18.70;69.90;;;;;;5016495;28;20468;-61
2021/03/29 08:05:41;;;;;;;8.75;3.40;;;19.50;64.90;;;;;;5011855;28;20415;-61
2021/03/29 08:08:32;;;;;;;14.35;3.63;;;20.50;63.70;;;;;;5011060;28;20038;-61
2021/03/29 08:11:06;;;;;;;13.80;4.25;;;21.60;60.10;;;;;;4994055;28;20036;-61
2021/03/29 08:13:56;;;;;;;11.02;3.28;;;20.80;59.60;;;;;;4977251;28;20037;-60
2021/03/29 08:16:22;;;;;;;8.13;3.22;;;21.30;58.90;;;;;;5009079;28;20108;-62
2021/03/29 08:19:20;;;;;;;10.98;3.25;;;21.20;57.40;;;;;;5011664;28;20149;-61
2021/03/29 08:22:02;;;;;;;13.38;3.25;;;20.20;60.10;;;;;;5001952;28;20034;-62
2021/03/29 08:24:36;;;;;;;12.02;3.47;;;19.50;60.80;;;;;;5009485;28;20030;-61
2021/03/29 08:27:15;;;;;;;13.40;3.83;;;18.90;63.60;;;;;;5009793;28;20061;-61
2021/03/29 08:29:48;;;;;;;13.38;3.42;;;19.10;63.30;;;;;;5002144;28;20025;-61
2021/03/29 08:32:23;;;;;;;7.85;3.22;;;19.00;61.10;;;;;;5012386;28;20025;-60
2021/03/29 08:35:02;;;;;;;9.50;4.05;;;18.90;62.80;;;;;;5011204;28;20102;-60
2021/03/29 08:37:47;;;;;;;15.48;3.67;;;18.90;62.70;;;;;;4998498;28;20026;-61
2021/03/29 08:40:23;;;;;;;9.50;2.95;;;18.30;63.40;;;;;;5006652;28;20101;-61
2021/03/29 08:42:51;;;;;;;8.68;2.72;;;17.90;65.00;;;;;;5005169;28;20033;-61
2021/03/29 08:45:19;;;;;;;7.43;2.88;;;17.90;65.00;;;;;;4999622;28;20037;-61
2021/03/29 08:47:48;;;;;;;12.70;3.08;;;18.30;65.50;;;;;;5004682;28;20057;-61
2021/03/29 08:50:35;;;;;;;9.88;2.85;;;18.30;64.90;;;;;;5001147;28;20041;-62
2021/03/29 08:53:03;;;;;;;11.15;3.03;;;19.10;65.00;;;;;;5012750;28;20533;-62
2021/03/29 08:55:32;;;;;;;8.40;2.30;;;19.50;61.50;;;;;;5010659;28;20109;-60
2021/03/29 08:57:58;;;;;;;8.32;3.08;;;19.80;63.20;;;;;;5010386;28;20353;-61
2021/03/29 09:00:26;;;;;;;14.95;3.05;;;20.00;60.40;;;;;;5010470;28;20030;-61
2021/03/29 09:02:52;;;;;;;12.30;3.03;;;20.40;59.10;;;;;;4998794;28;20030;-62
2021/03/29 09:05:20;;;;;;;7.28;2.38;;;20.10;58.60;;;;;;5010062;28;20030;-61
2021/03/29 09:07:48;;;;;;;8.52;2.67;;;20.40;61.10;;;;;;5010114;28;20048;-62
2021/03/29 09:10:20;;;;;;;8.63;2.97;;;20.70;58.70;;;;;;5024010;28;20037;-61
2021/03/29 09:12:51;;;;;;;8.10;2.30;;;20.90;58.30;;;;;;5009358;28;20495;-62
2021/03/29 09:15:18;;;;;;;11.63;3.22;;;20.70;56.80;;;;;;5009943;28;20505;-62
2021/03/29 09:17:44;;;;;;;5.65;2.15;;;20.40;57.60;;;;;;5009067;28;20392;-60
2021/03/29 09:20:49;;;;;;;7.55;2.58;;;20.20;57.70;;;;;;5009379;28;20037;-61
2021/03/29 09:23:19;;;;;;;8.23;2.83;;;20.20;57.70;;;;;;5009922;28;20057;-62
2021/03/29 09:25:47;;;;;;;11.98;2.58;;;19.90;56.30;;;;;;5006736;28;20507;-61
2021/03/29 09:30:57;;;;;;;12.95;2.75;;;19.60;59.30;;;;;;4960540;28;20049;-62
2021/03/29 09:33:24;;;;;;;6.85;2.78;;;20.30;59.40;;;;;;5009239;28;20178;-61
2021/03/29 09:35:52;;;;;;;6.82;2.55;;;20.80;56.60;;;;;;4999188;28;20025;-62
2021/03/29 09:38:38;;;;;;;9.68;2.85;;;21.20;54.70;;;;;;5008449;28;20503;-61
2021/03/29 09:41:14;;;;;;;9.30;1.95;;;21.40;54.90;;;;;;4999475;28;20038;-62
2021/03/29 09:43:44;;;;;;;10.30;2.28;;;21.50;54.70;;;;;;5009231;28;20084;-61
2021/03/29 09:46:09;;;;;;;9.95;2.40;;;21.40;53.40;;;;;;5009765;28;20025;-62
2021/03/29 09:48:35;;;;;;;10.18;2.33;;;20.90;52.80;;;;;;4996789;28;20634;-60
2021/03/29 09:51:01;;;;;;;9.18;2.60;;;21.20;53.10;;;;;;5023165;28;20026;-62
2021/03/29 09:53:33;;;;;;;6.57;2.25;;;21.70;52.10;;;;;;5011468;28;20018;-62
2021/03/29 09:56:01;;;;;;;8.95;2.20;;;21.70;50.80;;;;;;5009010;28;20022;-62
2021/03/29 09:58:39;;;;;;;7.63;2.05;;;21.60;51.30;;;;;;5007557;28;20439;-62
2021/03/29 10:01:19;;;;;;;6.68;1.85;;;21.60;50.90;;;;;;5009374;28;20040;-61
2021/03/29 10:03:52;;;;;;;7.70;2.17;;;21.00;49.30;;;;;;5009295;28;20029;-60
2021/03/29 10:06:18;;;;;;;4.93;1.77;;;20.60;50.20;;;;;;5005963;28;20018;-61
2021/03/29 10:08:55;;;;;;;5.60;1.80;;;20.50;49.60;;;;;;5002474;28;20080;-61
2021/03/29 10:11:21;;;;;;;9.23;2.22;;;20.60;49.70;;;;;;5009308;28;20088;-61
2021/03/29 10:13:46;;;;;;;6.35;2.80;;;20.50;50.20;;;;;;5010068;28;20029;-61
2021/03/29 10:16:30;;;;;;;14.70;3.28;;;20.80;50.60;;;;;;5009475;28;20068;-59
2021/03/29 10:19:07;;;;;;;8.23;2.50;;;20.60;49.70;;;;;;5002625;28;20569;-59
2021/03/29 10:21:34;;;;;;;8.00;2.25;;;20.70;49.90;;;;;;5009474;28;20109;-60
2021/03/29 10:24:15;;;;;;;6.32;2.92;;;20.70;49.10;;;;;;5009797;28;20038;-61
2021/03/29 10:26:54;;;;;;;6.07;2.10;;;20.60;47.80;;;;;;5007966;28;20034;-60
2021/03/29 10:29:37;;;;;;;5.55;1.90;;;20.50;47.40;;;;;;5009967;28;20036;-61
2021/03/29 10:32:12;;;;;;;8.23;2.45;;;20.60;47.90;;;;;;4970234;28;20053;-59
2021/03/29 10:34:39;;;;;;;6.80;1.90;;;20.80;48.10;;;;;;5010302;28;20025;-61
2021/03/29 10:37:26;;;;;;;10.45;2.15;;;20.40;46.30;;;;;;5003494;28;20037;-61
2021/03/29 10:39:54;;;;;;;7.03;1.60;;;20.20;47.00;;;;;;5002732;28;20129;-61
2021/03/29 10:42:21;;;;;;;5.40;2.30;;;20.40;48.10;;;;;;5002123;28;20037;-61
2021/03/29 10:44:47;;;;;;;5.32;1.88;;;20.60;46.80;;;;;;5008569;28;20037;-61
2021/03/29 10:47:13;;;;;;;7.57;2.00;;;20.80;46.50;;;;;;5008555;28;20034;-61
2021/03/29 10:49:39;;;;;;;14.50;2.30;;;20.50;46.10;;;;;;5011567;28;20029;-62
2021/03/29 10:52:06;;;;;;;5.28;1.98;;;20.70;46.00;;;;;;5012622;28;20038;-62
2021/03/29 10:54:31;;;;;;;5.18;1.73;;;20.50;45.10;;;;;;5010662;28;20184;-60
2021/03/29 10:56:57;;;;;;;6.28;2.20;;;20.20;44.40;;;;;;5014258;28;20495;-60
2021/03/29 10:59:23;;;;;;;6.45;1.63;;;20.30;45.20;;;;;;5012126;28;20101;-61
2021/03/29 11:01:48;;;;;;;7.78;1.95;;;20.30;46.00;;;;;;5012037;28;20041;-60
2021/03/29 11:04:14;;;;;;;7.28;1.90;;;20.30;44.30;;;;;;5012910;28;20093;-60
2021/03/29 11:06:39;;;;;;;6.55;2.63;;;20.50;45.30;;;;;;5014907;28;20028;-61
2021/03/29 11:09:06;;;;;;;10.48;2.60;;;20.30;43.20;;;;;;5013919;28;20641;-60
2021/03/29 11:11:31;;;;;;;6.43;2.00;;;20.30;43.70;;;;;;5001190;28;20067;-61
2021/03/29 11:13:57;;;;;;;7.55;1.85;;;20.10;43.40;;;;;;5005526;28;20120;-61
2021/03/29 11:16:23;;;;;;;5.28;1.63;;;20.10;43.60;;;;;;5012804;28;20026;-61
2021/03/29 11:18:49;;;;;;;6.20;2.17;;;20.30;44.70;;;;;;5011800;28;20022;-59
2021/03/29 11:21:16;;;;;;;6.70;1.95;;;20.40;40.40;;;;;;5011991;28;20156;-61
2021/03/29 11:23:42;;;;;;;7.18;2.28;;;20.30;42.20;;;;;;5001905;28;20038;-60
2021/03/29 11:26:07;;;;;;;6.97;2.60;;;20.30;41.70;;;;;;5011230;28;20091;-60
2021/03/29 11:28:33;;;;;;;6.60;2.13;;;20.40;41.90;;;;;;5012396;28;20546;-60
2021/03/29 11:30:59;;;;;;;8.98;2.20;;;20.40;41.00;;;;;;4958956;28;20049;-58
2021/03/29 11:33:24;;;;;;;8.45;2.80;;;20.60;41.90;;;;;;5011109;28;20022;-60
2021/03/29 11:35:50;;;;;;;6.75;2.17;;;20.60;40.30;;;;;;5007005;28;20034;-60
2021/03/29 11:38:16;;;;;;;9.13;2.22;;;20.30;39.00;;;;;;5009310;28;20086;-60
2021/03/29 11:40:41;;;;;;;4.75;2.15;;;20.20;37.00;;;;;;5010554;28;20072;-60
2021/03/29 11:43:07;;;;;;;8.23;2.33;;;20.20;38.50;;;;;;5004433;28;20048;-61
2021/03/29 11:45:32;;;;;;;12.48;2.22;;;20.30;40.70;;;;;;5011698;28;20030;-60
2021/03/29 11:47:58;;;;;;;6.63;2.50;;;20.40;37.70;;;;;;5010706;28;20029;-62
2021/03/29 11:50:24;;;;;;;7.60;3.33;;;20.40;38.20;;;;;;5007019;28;20074;-62
2021/03/29 11:52:50;;;;;;;5.20;2.13;;;20.30;38.00;;;;;;4999835;28;20594;-62
2021/03/29 11:55:16;;;;;;;7.80;2.08;;;20.40;37.40;;;;;;5011358;28;20021;-62
2021/03/29 11:57:43;;;;;;;6.20;2.17;;;20.40;36.90;;;;;;5011205;28;20021;-62
2021/03/29 12:00:20;;;;;;;4.63;1.75;;;20.40;37.90;;;;;;5009539;28;20680;-62
2021/03/29 12:02:56;;;;;;;6.25;1.77;;;20.50;36.10;;;;;;5010076;28;20033;-62
2021/03/29 12:05:30;;;;;;;6.50;2.10;;;20.60;34.90;;;;;;5000107;28;20475;-61
2021/03/29 12:13:12;;;;;;;5.20;2.03;;;20.60;34.80;;;;;;5012785;28;20041;-59
2021/03/29 12:15:40;;;;;;;4.45;1.90;;;20.60;31.30;;;;;;5012164;28;20037;-60
2021/03/29 12:18:06;;;;;;;5.60;2.00;;;20.70;33.50;;;;;;5020259;28;20045;-61
2021/03/29 12:20:32;;;;;;;5.07;2.22;;;20.50;31.80;;;;;;5009387;28;20060;-61
2021/03/29 12:23:00;;;;;;;3.88;1.55;;;20.60;31.20;;;;;;5011141;28;20044;-61
2021/03/29 12:25:26;;;;;;;3.08;1.77;;;20.50;30.70;;;;;;5010838;28;20022;-61
2021/03/29 12:27:52;;;;;;;3.00;1.60;;;20.40;30.20;;;;;;5012181;28;20045;-61
2021/03/29 12:30:19;;;;;;;6.90;1.85;;;20.40;29.80;;;;;;4998463;28;20495;-60
2021/03/29 12:32:46;;;;;;;6.88;1.73;;;20.50;31.00;;;;;;4980830;28;20161;-61
2021/03/29 12:35:21;;;;;;;2.67;1.48;;;20.40;30.30;;;;;;5010224;28;20026;-59
2021/03/29 12:37:49;;;;;;;4.30;1.95;;;20.50;31.80;;;;;;5003424;28;20030;-60
2021/03/29 12:40:20;;;;;;;6.63;1.98;;;20.50;30.80;;;;;;4998806;28;20033;-62
2021/03/29 12:43:04;;;;;;;6.22;2.03;;;20.60;31.80;;;;;;5010682;28;20026;-61
2021/03/29 12:45:32;;;;;;;7.47;2.13;;;20.50;29.70;;;;;;5004053;28;20049;-61
2021/03/29 12:48:01;;;;;;;6.60;2.00;;;20.50;31.00;;;;;;5010742;28;20494;-62
2021/03/29 12:50:28;;;;;;;3.55;1.50;;;20.50;31.10;;;;;;5008914;28;20523;-62
2021/03/29 12:52:54;;;;;;;3.22;1.70;;;20.50;29.60;;;;;;5005523;28;20014;-60
2021/03/29 12:55:21;;;;;;;4.30;2.00;;;20.40;28.80;;;;;;5011281;28;20092;-62
2021/03/29 12:57:47;;;;;;;4.43;1.45;;;20.30;30.10;;;;;;5002740;28;20021;-60
2021/03/29 13:00:19;;;;;;;4.35;2.42;;;20.40;30.70;;;;;;5010365;28;20097;-59
2021/03/29 13:02:45;;;;;;;6.18;1.60;;;20.40;30.00;;;;;;5001840;28;20511;-59
2021/03/29 13:05:18;;;;;;;3.97;1.60;;;20.30;29.90;;;;;;5011721;28;20042;-61
2021/03/29 13:11:03;;;;;;;9.95;2.03;;;20.30;29.80;;;;;;5003880;28;20650;-60
2021/03/29 13:13:30;;;;;;;2.72;1.70;;;20.30;30.00;;;;;;5008468;28;20048;-61